Eborense — CSMP — position and weather

sailwx.info

Track history (hours):
 
Tides and Currents Weather Stations Pressure Air Temp Water Temp Dewpoint Dewpoint Depression Visibility Wind Speed Wind Dir Waves Ship Positions

Eborense

Last reported at 2015-Mar-18 19:09 UTC. Time now 2015-Mar-27 08:10 UTC.
Position N 38°41' W 009°09'.
Warning: this ship's position is 8 days out of date.

Length 49 m; draft 1.2 m.

Type: Passenger vessel. MMSI: 263701750.

Date/timePositionNaut miles runAvg speedWind from/ knotsBaromVisibWave heightAir tempDewpointWater temp
2015-Mar-18 19:09N 38°41' W 009°09'1 1.6
2015-Mar-18 18:33N 38°41' W 009°10'2 1.5
2015-Mar-18 17:33N 38°41' W 009°12'0 0.2
2015-Mar-18 16:32N 38°42' W 009°12'0 0.1
2015-Mar-18 15:33N 38°42' W 009°12'1 0.9
2015-Mar-18 14:28N 38°41' W 009°12'1 0.9
2015-Mar-18 13:33N 38°42' W 009°12'0 0.3
2015-Mar-18 12:32N 38°42' W 009°12'0 0.0
2015-Mar-18 11:31N 38°42' W 009°12'2 2.0
2015-Mar-18 10:33N 38°40' W 009°14'  
2015-Mar-10 22:32N 38°41' W 009°12'1 1.0
2015-Mar-10 21:33N 38°41' W 009°14'0 0.2
2015-Mar-10 20:33N 38°41' W 009°14'2 1.8
2015-Mar-10 19:33N 38°42' W 009°12'0 0.2
2015-Mar-10 18:33N 38°41' W 009°12'0 0.4
2015-Mar-10 17:33N 38°41' W 009°12'0 0.3
2015-Mar-10 16:33N 38°41' W 009°12'0 0.3
2015-Mar-10 15:33N 38°41' W 009°12'1 0.9
2015-Mar-10 14:33N 38°41' W 009°13'1 1.1
2015-Mar-10 13:32N 38°42' W 009°12'0 0.2
2015-Mar-10 12:32N 38°42' W 009°12'0 0.1
2015-Mar-10 11:31N 38°42' W 009°12'2 2.0
2015-Mar-10 10:32N 38°40' W 009°14'  
Track history (hours):
 
Tides and Currents Weather Stations Pressure Air Temp Water Temp Dewpoint Dewpoint Depression Visibility Wind Speed Wind Dir Waves Ship Positions

Eborense

Last reported at 2015-Mar-18 19:09 UTC. Time now 2015-Mar-27 08:10 UTC.
Position N 38°41' W 009°09'.
Warning: this ship's position is 8 days out of date.

Length 49 m; draft 1.2 m.

Type: Passenger vessel. MMSI: 263701750.

Date/timePositionNaut miles runAvg speedWind from/ knotsBaromVisibWave heightAir tempDewpointWater temp
2015-Mar-18 19:09N 38°41' W 009°09'1 1.6
2015-Mar-18 18:33N 38°41' W 009°10'2 1.5
2015-Mar-18 17:33N 38°41' W 009°12'0 0.2
2015-Mar-18 16:32N 38°42' W 009°12'0 0.1
2015-Mar-18 15:33N 38°42' W 009°12'1 0.9
2015-Mar-18 14:28N 38°41' W 009°12'1 0.9
2015-Mar-18 13:33N 38°42' W 009°12'0 0.3
2015-Mar-18 12:32N 38°42' W 009°12'0 0.0
2015-Mar-18 11:31N 38°42' W 009°12'2 2.0
2015-Mar-18 10:33N 38°40' W 009°14'  
2015-Mar-10 22:32N 38°41' W 009°12'1 1.0
2015-Mar-10 21:33N 38°41' W 009°14'0 0.2
2015-Mar-10 20:33N 38°41' W 009°14'2 1.8
2015-Mar-10 19:33N 38°42' W 009°12'0 0.2
2015-Mar-10 18:33N 38°41' W 009°12'0 0.4
2015-Mar-10 17:33N 38°41' W 009°12'0 0.3
2015-Mar-10 16:33N 38°41' W 009°12'0 0.3
2015-Mar-10 15:33N 38°41' W 009°12'1 0.9
2015-Mar-10 14:33N 38°41' W 009°13'1 1.1
2015-Mar-10 13:32N 38°42' W 009°12'0 0.2
2015-Mar-10 12:32N 38°42' W 009°12'0 0.1
2015-Mar-10 11:31N 38°42' W 009°12'2 2.0
2015-Mar-10 10:32N 38°40' W 009°14'  

Dump ship's entire track history